sensor_id;sensor_type;location;lat;lon;timestamp;P1;durP1;ratioP1;P2;durP2;ratioP2
3781;SDS011;6881;49.962;7.718;2023-07-24T00:01:46;2.57;;;1.83;;
3781;SDS011;6881;49.962;7.718;2023-07-24T00:04:12;2.17;;;1.57;;
3781;SDS011;6881;49.962;7.718;2023-07-24T00:06:37;2.47;;;1.70;;
3781;SDS011;6881;49.962;7.718;2023-07-24T00:09:02;3.67;;;2.17;;
3781;SDS011;6881;49.962;7.718;2023-07-24T00:11:28;2.57;;;1.90;;
3781;SDS011;6881;49.962;7.718;2023-07-24T00:13:53;2.53;;;2.10;;
3781;SDS011;6881;49.962;7.718;2023-07-24T00:16:18;3.07;;;1.80;;
3781;SDS011;6881;49.962;7.718;2023-07-24T00:18:43;8.60;;;1.97;;
3781;SDS011;6881;49.962;7.718;2023-07-24T00:21:09;3.87;;;2.50;;
3781;SDS011;6881;49.962;7.718;2023-07-24T00:23:35;2.70;;;2.23;;
3781;SDS011;6881;49.962;7.718;2023-07-24T00:26:01;3.93;;;2.40;;
3781;SDS011;6881;49.962;7.718;2023-07-24T00:28:26;3.50;;;2.20;;
3781;SDS011;6881;49.962;7.718;2023-07-24T00:30:51;2.10;;;1.90;;
3781;SDS011;6881;49.962;7.718;2023-07-24T00:33:17;2.53;;;1.90;;
3781;SDS011;6881;49.962;7.718;2023-07-24T00:35:42;4.17;;;2.37;;
3781;SDS011;6881;49.962;7.718;2023-07-24T00:38:07;3.80;;;2.20;;
3781;SDS011;6881;49.962;7.718;2023-07-24T00:40:32;2.93;;;2.03;;
3781;SDS011;6881;49.962;7.718;2023-07-24T00:42:58;2.53;;;1.93;;
3781;SDS011;6881;49.962;7.718;2023-07-24T00:45:23;2.53;;;2.10;;
3781;SDS011;6881;49.962;7.718;2023-07-24T00:47:49;3.17;;;2.60;;
3781;SDS011;6881;49.962;7.718;2023-07-24T00:50:14;2.97;;;2.10;;
3781;SDS011;6881;49.962;7.718;2023-07-24T00:52:40;3.50;;;2.10;;
3781;SDS011;6881;49.962;7.718;2023-07-24T00:55:05;2.90;;;2.33;;
3781;SDS011;6881;49.962;7.718;2023-07-24T00:57:32;3.50;;;2.10;;
3781;SDS011;6881;49.962;7.718;2023-07-24T00:59:57;3.13;;;2.20;;
3781;SDS011;6881;49.962;7.718;2023-07-24T01:02:22;2.70;;;2.00;;
3781;SDS011;6881;49.962;7.718;2023-07-24T01:04:48;4.70;;;2.70;;
3781;SDS011;6881;49.962;7.718;2023-07-24T01:07:13;3.00;;;2.30;;
3781;SDS011;6881;49.962;7.718;2023-07-24T01:09:41;2.50;;;2.10;;
3781;SDS011;6881;49.962;7.718;2023-07-24T01:17:57;2.73;;;2.47;;
3781;SDS011;6881;49.962;7.718;2023-07-24T01:20:25;4.03;;;2.33;;
3781;SDS011;6881;49.962;7.718;2023-07-24T01:23:04;3.57;;;2.30;;
3781;SDS011;6881;49.962;7.718;2023-07-24T01:25:47;3.83;;;2.80;;
3781;SDS011;6881;49.962;7.718;2023-07-24T01:28:16;4.13;;;2.10;;
3781;SDS011;6881;49.962;7.718;2023-07-24T01:30:42;3.70;;;1.80;;
3781;SDS011;6881;49.962;7.718;2023-07-24T01:33:07;2.50;;;1.93;;
3781;SDS011;6881;49.962;7.718;2023-07-24T01:35:32;2.97;;;2.60;;
3781;SDS011;6881;49.962;7.718;2023-07-24T01:37:58;3.77;;;2.53;;
3781;SDS011;6881;49.962;7.718;2023-07-24T01:40:24;4.40;;;2.60;;
3781;SDS011;6881;49.962;7.718;2023-07-24T01:42:49;3.20;;;2.17;;
3781;SDS011;6881;49.962;7.718;2023-07-24T01:45:15;1.97;;;1.77;;
3781;SDS011;6881;49.962;7.718;2023-07-24T01:47:40;3.33;;;2.43;;
3781;SDS011;6881;49.962;7.718;2023-07-24T01:50:06;1.97;;;1.77;;
3781;SDS011;6881;49.962;7.718;2023-07-24T01:52:32;3.03;;;2.20;;
3781;SDS011;6881;49.962;7.718;2023-07-24T01:54:57;3.60;;;2.27;;
3781;SDS011;6881;49.962;7.718;2023-07-24T01:57:22;2.77;;;2.40;;
3781;SDS011;6881;49.962;7.718;2023-07-24T01:59:48;2.90;;;2.30;;
3781;SDS011;6881;49.962;7.718;2023-07-24T02:02:13;3.77;;;2.07;;
3781;SDS011;6881;49.962;7.718;2023-07-24T02:04:39;2.80;;;2.07;;
3781;SDS011;6881;49.962;7.718;2023-07-24T02:07:04;3.23;;;2.63;;
3781;SDS011;6881;49.962;7.718;2023-07-24T02:09:29;3.80;;;2.83;;
3781;SDS011;6881;49.962;7.718;2023-07-24T02:11:55;3.03;;;2.63;;
3781;SDS011;6881;49.962;7.718;2023-07-24T02:14:20;4.37;;;2.47;;
3781;SDS011;6881;49.962;7.718;2023-07-24T02:16:46;2.70;;;2.00;;
3781;SDS011;6881;49.962;7.718;2023-07-24T02:19:11;3.70;;;2.50;;
3781;SDS011;6881;49.962;7.718;2023-07-24T02:21:36;4.33;;;3.53;;
3781;SDS011;6881;49.962;7.718;2023-07-24T02:24:02;3.20;;;2.30;;
3781;SDS011;6881;49.962;7.718;2023-07-24T02:26:27;3.00;;;2.50;;
3781;SDS011;6881;49.962;7.718;2023-07-24T02:28:52;2.93;;;2.50;;
3781;SDS011;6881;49.962;7.718;2023-07-24T02:31:18;3.00;;;2.20;;
3781;SDS011;6881;49.962;7.718;2023-07-24T02:33:44;3.20;;;2.53;;
3781;SDS011;6881;49.962;7.718;2023-07-24T02:36:09;4.60;;;2.10;;
3781;SDS011;6881;49.962;7.718;2023-07-24T02:38:34;2.50;;;2.20;;
3781;SDS011;6881;49.962;7.718;2023-07-24T02:41:00;3.37;;;2.43;;
3781;SDS011;6881;49.962;7.718;2023-07-24T02:43:25;3.97;;;2.20;;
3781;SDS011;6881;49.962;7.718;2023-07-24T02:45:50;3.67;;;2.60;;
3781;SDS011;6881;49.962;7.718;2023-07-24T02:48:15;4.30;;;3.37;;
3781;SDS011;6881;49.962;7.718;2023-07-24T02:50:41;3.20;;;2.37;;
3781;SDS011;6881;49.962;7.718;2023-07-24T02:53:06;3.60;;;2.80;;
3781;SDS011;6881;49.962;7.718;2023-07-24T02:55:31;3.67;;;2.73;;
3781;SDS011;6881;49.962;7.718;2023-07-24T02:57:57;5.23;;;2.60;;
3781;SDS011;6881;49.962;7.718;2023-07-24T03:00:22;3.40;;;2.73;;
3781;SDS011;6881;49.962;7.718;2023-07-24T03:02:47;3.60;;;3.00;;
3781;SDS011;6881;49.962;7.718;2023-07-24T03:05:13;4.00;;;2.70;;
3781;SDS011;6881;49.962;7.718;2023-07-24T03:07:38;4.70;;;3.30;;
3781;SDS011;6881;49.962;7.718;2023-07-24T03:10:03;3.83;;;2.53;;
3781;SDS011;6881;49.962;7.718;2023-07-24T03:12:29;3.50;;;2.30;;
3781;SDS011;6881;49.962;7.718;2023-07-24T03:14:54;3.57;;;2.63;;
3781;SDS011;6881;49.962;7.718;2023-07-24T03:17:20;4.20;;;2.70;;
3781;SDS011;6881;49.962;7.718;2023-07-24T03:19:48;4.67;;;2.70;;
3781;SDS011;6881;49.962;7.718;2023-07-24T03:22:13;5.40;;;3.00;;
3781;SDS011;6881;49.962;7.718;2023-07-24T03:24:39;5.60;;;3.27;;
3781;SDS011;6881;49.962;7.718;2023-07-24T03:27:04;3.40;;;2.30;;
3781;SDS011;6881;49.962;7.718;2023-07-24T03:29:29;3.93;;;3.20;;
3781;SDS011;6881;49.962;7.718;2023-07-24T03:31:55;4.03;;;2.43;;
3781;SDS011;6881;49.962;7.718;2023-07-24T03:34:20;3.13;;;2.80;;
3781;SDS011;6881;49.962;7.718;2023-07-24T03:36:45;5.87;;;3.03;;
3781;SDS011;6881;49.962;7.718;2023-07-24T03:39:11;4.60;;;2.50;;
3781;SDS011;6881;49.962;7.718;2023-07-24T03:41:36;3.33;;;2.50;;
3781;SDS011;6881;49.962;7.718;2023-07-24T03:44:02;5.00;;;3.13;;
3781;SDS011;6881;49.962;7.718;2023-07-24T03:46:28;3.97;;;3.23;;
3781;SDS011;6881;49.962;7.718;2023-07-24T03:48:53;4.37;;;3.30;;
3781;SDS011;6881;49.962;7.718;2023-07-24T03:51:18;4.40;;;3.27;;
3781;SDS011;6881;49.962;7.718;2023-07-24T03:53:43;5.67;;;3.30;;
3781;SDS011;6881;49.962;7.718;2023-07-24T03:56:09;4.47;;;3.10;;
3781;SDS011;6881;49.962;7.718;2023-07-24T03:58:34;3.80;;;3.07;;
3781;SDS011;6881;49.962;7.718;2023-07-24T04:00:59;5.47;;;3.20;;
3781;SDS011;6881;49.962;7.718;2023-07-24T04:03:25;4.43;;;2.70;;
3781;SDS011;6881;49.962;7.718;2023-07-24T04:05:50;4.40;;;3.17;;
3781;SDS011;6881;49.962;7.718;2023-07-24T04:08:15;5.13;;;3.77;;
3781;SDS011;6881;49.962;7.718;2023-07-24T04:10:41;5.30;;;3.77;;
3781;SDS011;6881;49.962;7.718;2023-07-24T04:13:06;5.10;;;3.50;;
3781;SDS011;6881;49.962;7.718;2023-07-24T04:15:31;4.70;;;3.80;;
3781;SDS011;6881;49.962;7.718;2023-07-24T04:17:57;4.37;;;3.50;;
3781;SDS011;6881;49.962;7.718;2023-07-24T04:20:22;5.27;;;4.20;;
3781;SDS011;6881;49.962;7.718;2023-07-24T04:22:47;4.70;;;3.67;;
3781;SDS011;6881;49.962;7.718;2023-07-24T04:25:12;8.00;;;4.03;;
3781;SDS011;6881;49.962;7.718;2023-07-24T04:27:38;3.87;;;2.80;;
3781;SDS011;6881;49.962;7.718;2023-07-24T04:30:03;3.73;;;2.97;;
3781;SDS011;6881;49.962;7.718;2023-07-24T04:32:29;5.17;;;3.23;;
3781;SDS011;6881;49.962;7.718;2023-07-24T04:34:54;4.43;;;3.17;;
3781;SDS011;6881;49.962;7.718;2023-07-24T04:37:19;4.03;;;3.33;;
3781;SDS011;6881;49.962;7.718;2023-07-24T04:39:45;4.17;;;2.70;;
3781;SDS011;6881;49.962;7.718;2023-07-24T04:42:10;5.10;;;3.97;;
3781;SDS011;6881;49.962;7.718;2023-07-24T04:44:35;4.93;;;3.40;;
3781;SDS011;6881;49.962;7.718;2023-07-24T04:47:01;4.20;;;3.13;;
3781;SDS011;6881;49.962;7.718;2023-07-24T04:49:29;5.50;;;4.00;;
3781;SDS011;6881;49.962;7.718;2023-07-24T04:51:55;4.00;;;3.40;;
3781;SDS011;6881;49.962;7.718;2023-07-24T04:54:20;4.90;;;3.57;;
3781;SDS011;6881;49.962;7.718;2023-07-24T04:56:45;4.00;;;3.10;;
3781;SDS011;6881;49.962;7.718;2023-07-24T04:59:10;4.27;;;3.30;;
3781;SDS011;6881;49.962;7.718;2023-07-24T05:01:36;6.33;;;3.90;;
3781;SDS011;6881;49.962;7.718;2023-07-24T05:04:01;3.63;;;2.83;;
3781;SDS011;6881;49.962;7.718;2023-07-24T05:06:26;7.00;;;3.50;;
3781;SDS011;6881;49.962;7.718;2023-07-24T05:08:52;6.43;;;3.90;;
3781;SDS011;6881;49.962;7.718;2023-07-24T05:11:18;5.27;;;3.50;;
3781;SDS011;6881;49.962;7.718;2023-07-24T05:13:43;5.43;;;4.13;;
3781;SDS011;6881;49.962;7.718;2023-07-24T05:16:08;4.70;;;2.83;;
3781;SDS011;6881;49.962;7.718;2023-07-24T05:18:33;7.60;;;3.63;;
3781;SDS011;6881;49.962;7.718;2023-07-24T05:20:59;5.17;;;3.50;;
3781;SDS011;6881;49.962;7.718;2023-07-24T05:23:24;5.60;;;3.67;;
3781;SDS011;6881;49.962;7.718;2023-07-24T05:25:56;6.47;;;3.30;;
3781;SDS011;6881;49.962;7.718;2023-07-24T05:28:28;5.57;;;3.50;;
3781;SDS011;6881;49.962;7.718;2023-07-24T05:30:54;4.67;;;3.03;;
3781;SDS011;6881;49.962;7.718;2023-07-24T05:33:20;5.40;;;3.50;;
3781;SDS011;6881;49.962;7.718;2023-07-24T05:35:45;4.80;;;3.77;;
3781;SDS011;6881;49.962;7.718;2023-07-24T05:38:11;5.83;;;3.77;;
3781;SDS011;6881;49.962;7.718;2023-07-24T05:40:36;9.07;;;3.83;;
3781;SDS011;6881;49.962;7.718;2023-07-24T05:43:01;3.97;;;3.20;;
3781;SDS011;6881;49.962;7.718;2023-07-24T05:45:27;5.07;;;3.77;;
3781;SDS011;6881;49.962;7.718;2023-07-24T05:47:52;4.80;;;3.40;;
3781;SDS011;6881;49.962;7.718;2023-07-24T05:50:18;3.90;;;3.20;;
3781;SDS011;6881;49.962;7.718;2023-07-24T05:52:43;4.23;;;3.50;;
3781;SDS011;6881;49.962;7.718;2023-07-24T05:55:08;5.20;;;4.00;;
3781;SDS011;6881;49.962;7.718;2023-07-24T05:57:34;5.60;;;3.67;;
3781;SDS011;6881;49.962;7.718;2023-07-24T05:59:59;6.10;;;4.10;;
3781;SDS011;6881;49.962;7.718;2023-07-24T06:02:25;5.27;;;3.90;;
3781;SDS011;6881;49.962;7.718;2023-07-24T06:04:50;6.80;;;3.87;;
3781;SDS011;6881;49.962;7.718;2023-07-24T06:07:15;8.70;;;3.73;;
3781;SDS011;6881;49.962;7.718;2023-07-24T06:09:41;3.70;;;3.20;;
3781;SDS011;6881;49.962;7.718;2023-07-24T06:12:06;6.50;;;4.23;;
3781;SDS011;6881;49.962;7.718;2023-07-24T06:14:32;6.20;;;4.03;;
3781;SDS011;6881;49.962;7.718;2023-07-24T06:16:57;4.77;;;3.50;;
3781;SDS011;6881;49.962;7.718;2023-07-24T06:19:22;6.87;;;3.70;;
3781;SDS011;6881;49.962;7.718;2023-07-24T06:21:47;6.80;;;3.67;;
3781;SDS011;6881;49.962;7.718;2023-07-24T06:24:13;7.23;;;4.40;;
3781;SDS011;6881;49.962;7.718;2023-07-24T06:26:38;5.00;;;3.93;;
3781;SDS011;6881;49.962;7.718;2023-07-24T06:29:04;5.87;;;4.30;;
3781;SDS011;6881;49.962;7.718;2023-07-24T06:31:29;7.47;;;3.63;;
3781;SDS011;6881;49.962;7.718;2023-07-24T06:33:55;6.30;;;4.33;;
3781;SDS011;6881;49.962;7.718;2023-07-24T06:36:20;17.20;;;5.83;;
3781;SDS011;6881;49.962;7.718;2023-07-24T06:38:45;6.87;;;5.00;;
3781;SDS011;6881;49.962;7.718;2023-07-24T06:41:12;8.53;;;4.40;;
3781;SDS011;6881;49.962;7.718;2023-07-24T06:43:38;9.17;;;4.47;;
3781;SDS011;6881;49.962;7.718;2023-07-24T06:46:04;4.20;;;3.00;;
3781;SDS011;6881;49.962;7.718;2023-07-24T06:48:29;4.50;;;3.53;;
3781;SDS011;6881;49.962;7.718;2023-07-24T06:50:54;7.37;;;4.47;;
3781;SDS011;6881;49.962;7.718;2023-07-24T06:53:19;6.87;;;3.73;;
3781;SDS011;6881;49.962;7.718;2023-07-24T06:55:45;6.00;;;4.37;;
3781;SDS011;6881;49.962;7.718;2023-07-24T06:58:10;5.37;;;3.33;;
3781;SDS011;6881;49.962;7.718;2023-07-24T07:00:35;4.67;;;3.67;;
3781;SDS011;6881;49.962;7.718;2023-07-24T07:03:00;4.83;;;3.80;;
3781;SDS011;6881;49.962;7.718;2023-07-24T07:05:26;7.10;;;3.50;;
3781;SDS011;6881;49.962;7.718;2023-07-24T07:07:51;5.07;;;3.77;;
3781;SDS011;6881;49.962;7.718;2023-07-24T07:10:16;8.00;;;4.73;;
3781;SDS011;6881;49.962;7.718;2023-07-24T07:12:42;7.33;;;4.20;;
3781;SDS011;6881;49.962;7.718;2023-07-24T07:15:07;6.90;;;4.30;;
3781;SDS011;6881;49.962;7.718;2023-07-24T07:17:33;4.57;;;3.80;;
3781;SDS011;6881;49.962;7.718;2023-07-24T07:19:58;3.97;;;3.50;;
3781;SDS011;6881;49.962;7.718;2023-07-24T07:22:23;4.37;;;3.80;;
3781;SDS011;6881;49.962;7.718;2023-07-24T07:24:49;4.40;;;3.07;;
3781;SDS011;6881;49.962;7.718;2023-07-24T07:27:14;5.47;;;3.47;;
3781;SDS011;6881;49.962;7.718;2023-07-24T07:29:42;4.20;;;3.27;;
3781;SDS011;6881;49.962;7.718;2023-07-24T07:32:07;4.23;;;3.43;;
3781;SDS011;6881;49.962;7.718;2023-07-24T07:34:33;6.07;;;3.37;;
3781;SDS011;6881;49.962;7.718;2023-07-24T07:36:59;5.37;;;3.60;;
3781;SDS011;6881;49.962;7.718;2023-07-24T07:39:25;5.37;;;3.20;;
3781;SDS011;6881;49.962;7.718;2023-07-24T07:41:50;7.90;;;3.40;;
3781;SDS011;6881;49.962;7.718;2023-07-24T07:44:16;3.70;;;3.40;;
3781;SDS011;6881;49.962;7.718;2023-07-24T07:46:41;4.40;;;3.63;;
3781;SDS011;6881;49.962;7.718;2023-07-24T07:49:06;4.63;;;3.13;;
3781;SDS011;6881;49.962;7.718;2023-07-24T07:51:31;5.00;;;3.60;;
3781;SDS011;6881;49.962;7.718;2023-07-24T07:53:57;3.87;;;3.27;;
3781;SDS011;6881;49.962;7.718;2023-07-24T07:56:22;5.70;;;3.30;;
3781;SDS011;6881;49.962;7.718;2023-07-24T07:58:47;4.80;;;3.70;;
3781;SDS011;6881;49.962;7.718;2023-07-24T08:01:14;4.23;;;2.73;;
3781;SDS011;6881;49.962;7.718;2023-07-24T08:03:39;5.83;;;3.67;;
3781;SDS011;6881;49.962;7.718;2023-07-24T08:06:04;5.27;;;4.37;;
3781;SDS011;6881;49.962;7.718;2023-07-24T08:08:31;3.80;;;3.37;;
3781;SDS011;6881;49.962;7.718;2023-07-24T08:10:56;3.37;;;2.90;;
3781;SDS011;6881;49.962;7.718;2023-07-24T08:13:21;3.50;;;3.00;;
3781;SDS011;6881;49.962;7.718;2023-07-24T08:15:47;7.00;;;3.30;;
3781;SDS011;6881;49.962;7.718;2023-07-24T08:18:12;4.43;;;3.93;;
3781;SDS011;6881;49.962;7.718;2023-07-24T08:20:37;4.30;;;3.50;;
3781;SDS011;6881;49.962;7.718;2023-07-24T08:23:03;5.37;;;4.00;;
3781;SDS011;6881;49.962;7.718;2023-07-24T08:25:29;4.87;;;3.00;;
3781;SDS011;6881;49.962;7.718;2023-07-24T08:27:54;3.30;;;3.00;;
3781;SDS011;6881;49.962;7.718;2023-07-24T08:30:20;4.70;;;4.03;;
3781;SDS011;6881;49.962;7.718;2023-07-24T08:32:45;4.40;;;3.63;;
3781;SDS011;6881;49.962;7.718;2023-07-24T08:35:10;5.77;;;3.70;;
3781;SDS011;6881;49.962;7.718;2023-07-24T08:37:35;4.30;;;3.87;;
3781;SDS011;6881;49.962;7.718;2023-07-24T08:40:01;6.43;;;4.50;;
3781;SDS011;6881;49.962;7.718;2023-07-24T08:42:26;7.83;;;3.67;;
3781;SDS011;6881;49.962;7.718;2023-07-24T08:44:53;4.07;;;3.67;;
3781;SDS011;6881;49.962;7.718;2023-07-24T08:47:19;5.40;;;4.67;;
3781;SDS011;6881;49.962;7.718;2023-07-24T08:49:44;4.00;;;3.60;;
3781;SDS011;6881;49.962;7.718;2023-07-24T08:52:11;3.57;;;3.27;;
3781;SDS011;6881;49.962;7.718;2023-07-24T08:54:37;2.93;;;2.60;;
3781;SDS011;6881;49.962;7.718;2023-07-24T08:57:04;3.80;;;3.40;;
3781;SDS011;6881;49.962;7.718;2023-07-24T08:59:33;3.07;;;2.73;;
3781;SDS011;6881;49.962;7.718;2023-07-24T09:01:59;3.53;;;3.23;;
3781;SDS011;6881;49.962;7.718;2023-07-24T09:04:24;4.50;;;4.00;;
3781;SDS011;6881;49.962;7.718;2023-07-24T09:06:50;3.70;;;3.00;;
3781;SDS011;6881;49.962;7.718;2023-07-24T09:09:15;4.93;;;3.33;;
3781;SDS011;6881;49.962;7.718;2023-07-24T09:11:53;6.70;;;4.07;;
3781;SDS011;6881;49.962;7.718;2023-07-24T09:14:22;4.63;;;3.80;;
3781;SDS011;6881;49.962;7.718;2023-07-24T09:17:06;4.80;;;3.77;;
3781;SDS011;6881;49.962;7.718;2023-07-24T09:19:32;4.83;;;3.50;;
3781;SDS011;6881;49.962;7.718;2023-07-24T09:22:10;4.40;;;3.40;;
3781;SDS011;6881;49.962;7.718;2023-07-24T09:24:37;7.20;;;3.90;;
3781;SDS011;6881;49.962;7.718;2023-07-24T09:27:04;4.40;;;3.33;;
3781;SDS011;6881;49.962;7.718;2023-07-24T09:29:31;4.43;;;4.03;;
3781;SDS011;6881;49.962;7.718;2023-07-24T09:31:57;3.20;;;2.90;;
3781;SDS011;6881;49.962;7.718;2023-07-24T09:34:22;4.90;;;3.80;;
3781;SDS011;6881;49.962;7.718;2023-07-24T09:36:47;4.47;;;3.20;;
3781;SDS011;6881;49.962;7.718;2023-07-24T09:39:13;4.87;;;3.53;;
3781;SDS011;6881;49.962;7.718;2023-07-24T09:41:39;4.20;;;3.70;;
3781;SDS011;6881;49.962;7.718;2023-07-24T09:44:04;6.00;;;4.00;;
3781;SDS011;6881;49.962;7.718;2023-07-24T09:46:30;4.80;;;3.90;;
3781;SDS011;6881;49.962;7.718;2023-07-24T09:48:56;5.60;;;3.80;;
3781;SDS011;6881;49.962;7.718;2023-07-24T09:51:22;5.57;;;3.60;;
3781;SDS011;6881;49.962;7.718;2023-07-24T09:53:52;5.90;;;4.30;;
3781;SDS011;6881;49.962;7.718;2023-07-24T09:56:20;4.40;;;3.90;;
3781;SDS011;6881;49.962;7.718;2023-07-24T09:58:47;4.27;;;3.50;;
3781;SDS011;6881;49.962;7.718;2023-07-24T10:01:14;7.40;;;3.50;;
3781;SDS011;6881;49.962;7.718;2023-07-24T10:03:43;4.70;;;3.70;;
3781;SDS011;6881;49.962;7.718;2023-07-24T10:06:11;4.93;;;4.10;;
3781;SDS011;6881;49.962;7.718;2023-07-24T10:08:36;4.93;;;3.73;;
3781;SDS011;6881;49.962;7.718;2023-07-24T10:11:03;6.10;;;3.97;;
3781;SDS011;6881;49.962;7.718;2023-07-24T10:13:29;7.93;;;3.90;;
3781;SDS011;6881;49.962;7.718;2023-07-24T10:15:54;4.63;;;4.23;;
3781;SDS011;6881;49.962;7.718;2023-07-24T10:18:25;5.00;;;3.83;;
3781;SDS011;6881;49.962;7.718;2023-07-24T10:20:59;5.07;;;4.40;;
3781;SDS011;6881;49.962;7.718;2023-07-24T10:23:26;8.03;;;6.40;;
3781;SDS011;6881;49.962;7.718;2023-07-24T10:25:51;4.70;;;4.20;;
3781;SDS011;6881;49.962;7.718;2023-07-24T10:28:17;6.23;;;4.33;;
3781;SDS011;6881;49.962;7.718;2023-07-24T10:30:43;5.23;;;4.60;;
3781;SDS011;6881;49.962;7.718;2023-07-24T10:33:19;4.77;;;4.17;;
3781;SDS011;6881;49.962;7.718;2023-07-24T10:35:47;5.90;;;4.47;;
3781;SDS011;6881;49.962;7.718;2023-07-24T10:38:15;5.17;;;4.60;;
3781;SDS011;6881;49.962;7.718;2023-07-24T10:40:42;5.87;;;4.17;;
3781;SDS011;6881;49.962;7.718;2023-07-24T10:43:12;6.23;;;4.73;;
3781;SDS011;6881;49.962;7.718;2023-07-24T10:48:04;4.93;;;4.43;;
3781;SDS011;6881;49.962;7.718;2023-07-24T10:50:36;5.13;;;4.07;;
3781;SDS011;6881;49.962;7.718;2023-07-24T10:53:03;5.60;;;4.13;;
3781;SDS011;6881;49.962;7.718;2023-07-24T10:55:28;4.60;;;4.10;;
3781;SDS011;6881;49.962;7.718;2023-07-24T10:57:53;5.60;;;4.10;;
3781;SDS011;6881;49.962;7.718;2023-07-24T11:00:19;4.13;;;3.80;;
3781;SDS011;6881;49.962;7.718;2023-07-24T11:02:44;4.53;;;3.70;;
3781;SDS011;6881;49.962;7.718;2023-07-24T11:05:09;5.47;;;4.23;;
3781;SDS011;6881;49.962;7.718;2023-07-24T11:07:34;4.27;;;3.80;;
3781;SDS011;6881;49.962;7.718;2023-07-24T11:10:00;5.03;;;4.10;;
3781;SDS011;6881;49.962;7.718;2023-07-24T11:12:25;6.53;;;5.17;;
3781;SDS011;6881;49.962;7.718;2023-07-24T11:14:55;4.80;;;4.30;;
3781;SDS011;6881;49.962;7.718;2023-07-24T11:17:21;4.77;;;4.27;;
3781;SDS011;6881;49.962;7.718;2023-07-24T11:19:46;3.40;;;3.10;;
3781;SDS011;6881;49.962;7.718;2023-07-24T11:22:12;5.13;;;4.63;;
3781;SDS011;6881;49.962;7.718;2023-07-24T11:24:45;4.47;;;3.87;;
3781;SDS011;6881;49.962;7.718;2023-07-24T11:27:15;4.83;;;3.90;;
3781;SDS011;6881;49.962;7.718;2023-07-24T11:29:42;5.03;;;4.20;;
3781;SDS011;6881;49.962;7.718;2023-07-24T11:32:12;4.97;;;3.97;;
3781;SDS011;6881;49.962;7.718;2023-07-24T11:34:37;5.27;;;4.20;;
3781;SDS011;6881;49.962;7.718;2023-07-24T11:37:03;5.17;;;3.63;;
3781;SDS011;6881;49.962;7.718;2023-07-24T11:39:29;3.77;;;3.43;;
3781;SDS011;6881;49.962;7.718;2023-07-24T11:41:54;5.60;;;4.10;;
3781;SDS011;6881;49.962;7.718;2023-07-24T11:44:27;5.47;;;3.67;;
3781;SDS011;6881;49.962;7.718;2023-07-24T11:46:59;4.60;;;4.10;;
3781;SDS011;6881;49.962;7.718;2023-07-24T11:49:27;3.10;;;2.80;;
3781;SDS011;6881;49.962;7.718;2023-07-24T11:51:53;5.53;;;4.20;;
3781;SDS011;6881;49.962;7.718;2023-07-24T11:54:24;6.70;;;3.30;;
3781;SDS011;6881;49.962;7.718;2023-07-24T11:56:50;4.50;;;4.10;;
3781;SDS011;6881;49.962;7.718;2023-07-24T11:59:15;4.00;;;3.67;;
3781;SDS011;6881;49.962;7.718;2023-07-24T12:01:40;4.80;;;4.27;;
3781;SDS011;6881;49.962;7.718;2023-07-24T12:04:06;4.40;;;3.70;;
3781;SDS011;6881;49.962;7.718;2023-07-24T12:06:31;7.13;;;4.43;;
3781;SDS011;6881;49.962;7.718;2023-07-24T12:09:03;5.57;;;5.03;;
3781;SDS011;6881;49.962;7.718;2023-07-24T12:11:30;6.60;;;5.90;;
3781;SDS011;6881;49.962;7.718;2023-07-24T12:13:56;5.90;;;4.57;;
3781;SDS011;6881;49.962;7.718;2023-07-24T12:16:21;6.47;;;4.20;;
3781;SDS011;6881;49.962;7.718;2023-07-24T12:18:47;5.57;;;4.77;;
3781;SDS011;6881;49.962;7.718;2023-07-24T12:21:12;6.50;;;5.00;;
3781;SDS011;6881;49.962;7.718;2023-07-24T12:23:37;5.30;;;4.53;;
3781;SDS011;6881;49.962;7.718;2023-07-24T12:26:03;5.10;;;4.03;;
3781;SDS011;6881;49.962;7.718;2023-07-24T12:28:28;7.03;;;4.67;;
3781;SDS011;6881;49.962;7.718;2023-07-24T12:30:53;5.60;;;4.80;;
3781;SDS011;6881;49.962;7.718;2023-07-24T12:33:18;5.17;;;4.10;;
3781;SDS011;6881;49.962;7.718;2023-07-24T12:35:48;6.50;;;4.40;;
3781;SDS011;6881;49.962;7.718;2023-07-24T12:38:13;5.50;;;4.23;;
3781;SDS011;6881;49.962;7.718;2023-07-24T12:40:38;5.07;;;3.43;;
3781;SDS011;6881;49.962;7.718;2023-07-24T12:43:04;3.93;;;3.30;;
3781;SDS011;6881;49.962;7.718;2023-07-24T12:45:29;4.70;;;4.20;;
3781;SDS011;6881;49.962;7.718;2023-07-24T12:47:54;6.20;;;3.50;;
3781;SDS011;6881;49.962;7.718;2023-07-24T12:50:20;3.63;;;3.33;;
3781;SDS011;6881;49.962;7.718;2023-07-24T12:52:47;3.70;;;3.03;;
3781;SDS011;6881;49.962;7.718;2023-07-24T12:55:13;4.90;;;3.20;;
3781;SDS011;6881;49.962;7.718;2023-07-24T12:57:38;5.03;;;4.00;;
3781;SDS011;6881;49.962;7.718;2023-07-24T13:00:03;5.23;;;3.87;;
3781;SDS011;6881;49.962;7.718;2023-07-24T13:02:29;3.87;;;3.40;;
3781;SDS011;6881;49.962;7.718;2023-07-24T13:04:56;3.97;;;3.57;;
3781;SDS011;6881;49.962;7.718;2023-07-24T13:07:22;4.20;;;3.80;;
3781;SDS011;6881;49.962;7.718;2023-07-24T13:09:47;4.53;;;3.40;;
3781;SDS011;6881;49.962;7.718;2023-07-24T13:12:12;3.03;;;2.43;;
3781;SDS011;6881;49.962;7.718;2023-07-24T13:14:37;4.13;;;2.87;;
3781;SDS011;6881;49.962;7.718;2023-07-24T13:17:03;3.83;;;3.07;;
3781;SDS011;6881;49.962;7.718;2023-07-24T13:19:28;4.00;;;2.77;;
3781;SDS011;6881;49.962;7.718;2023-07-24T13:21:54;2.70;;;1.70;;
3781;SDS011;6881;49.962;7.718;2023-07-24T13:24:19;2.03;;;1.70;;
3781;SDS011;6881;49.962;7.718;2023-07-24T13:26:44;2.20;;;1.47;;
3781;SDS011;6881;49.962;7.718;2023-07-24T13:29:10;2.80;;;1.93;;
3781;SDS011;6881;49.962;7.718;2023-07-24T13:31:35;2.83;;;2.20;;
3781;SDS011;6881;49.962;7.718;2023-07-24T13:34:00;2.40;;;1.73;;
3781;SDS011;6881;49.962;7.718;2023-07-24T13:36:26;2.73;;;2.03;;
3781;SDS011;6881;49.962;7.718;2023-07-24T13:38:51;3.50;;;2.50;;
3781;SDS011;6881;49.962;7.718;2023-07-24T13:41:17;4.83;;;3.40;;
3781;SDS011;6881;49.962;7.718;2023-07-24T13:43:42;5.27;;;4.13;;
3781;SDS011;6881;49.962;7.718;2023-07-24T13:46:08;3.83;;;3.43;;
3781;SDS011;6881;49.962;7.718;2023-07-24T13:48:34;6.80;;;3.60;;
3781;SDS011;6881;49.962;7.718;2023-07-24T13:50:59;3.50;;;3.10;;
3781;SDS011;6881;49.962;7.718;2023-07-24T13:53:24;4.10;;;3.47;;
3781;SDS011;6881;49.962;7.718;2023-07-24T13:55:50;6.20;;;4.27;;
3781;SDS011;6881;49.962;7.718;2023-07-24T13:58:15;3.50;;;3.00;;
3781;SDS011;6881;49.962;7.718;2023-07-24T14:00:41;3.43;;;2.67;;
3781;SDS011;6881;49.962;7.718;2023-07-24T14:03:06;3.70;;;2.77;;
3781;SDS011;6881;49.962;7.718;2023-07-24T14:05:32;3.70;;;3.03;;
3781;SDS011;6881;49.962;7.718;2023-07-24T14:07:57;3.50;;;2.97;;
3781;SDS011;6881;49.962;7.718;2023-07-24T14:10:23;3.30;;;2.73;;
3781;SDS011;6881;49.962;7.718;2023-07-24T14:12:48;3.50;;;2.57;;
3781;SDS011;6881;49.962;7.718;2023-07-24T14:15:13;3.50;;;2.37;;
3781;SDS011;6881;49.962;7.718;2023-07-24T14:17:40;3.20;;;2.70;;
3781;SDS011;6881;49.962;7.718;2023-07-24T14:20:05;2.60;;;2.00;;
3781;SDS011;6881;49.962;7.718;2023-07-24T14:22:31;2.67;;;2.17;;
3781;SDS011;6881;49.962;7.718;2023-07-24T14:24:57;2.93;;;1.97;;
3781;SDS011;6881;49.962;7.718;2023-07-24T14:27:22;2.57;;;1.77;;
3781;SDS011;6881;49.962;7.718;2023-07-24T14:29:47;1.77;;;1.63;;
3781;SDS011;6881;49.962;7.718;2023-07-24T14:32:12;1.93;;;1.73;;
3781;SDS011;6881;49.962;7.718;2023-07-24T14:34:38;1.83;;;1.20;;
3781;SDS011;6881;49.962;7.718;2023-07-24T14:37:04;1.33;;;1.23;;
3781;SDS011;6881;49.962;7.718;2023-07-24T14:39:29;3.10;;;1.23;;
3781;SDS011;6881;49.962;7.718;2023-07-24T14:41:55;2.10;;;1.37;;
3781;SDS011;6881;49.962;7.718;2023-07-24T14:44:20;1.10;;;0.90;;
3781;SDS011;6881;49.962;7.718;2023-07-24T14:46:45;1.40;;;1.10;;
3781;SDS011;6881;49.962;7.718;2023-07-24T14:49:10;1.50;;;1.00;;
3781;SDS011;6881;49.962;7.718;2023-07-24T14:51:36;1.60;;;1.20;;
3781;SDS011;6881;49.962;7.718;2023-07-24T14:54:02;1.73;;;1.30;;
3781;SDS011;6881;49.962;7.718;2023-07-24T14:56:27;1.40;;;1.20;;
3781;SDS011;6881;49.962;7.718;2023-07-24T14:58:52;1.60;;;1.50;;
3781;SDS011;6881;49.962;7.718;2023-07-24T15:01:18;3.90;;;1.20;;
3781;SDS011;6881;49.962;7.718;2023-07-24T15:03:43;2.17;;;1.50;;
3781;SDS011;6881;49.962;7.718;2023-07-24T15:06:08;1.40;;;1.13;;
3781;SDS011;6881;49.962;7.718;2023-07-24T15:08:34;1.63;;;1.50;;
3781;SDS011;6881;49.962;7.718;2023-07-24T15:10:59;2.80;;;1.40;;
3781;SDS011;6881;49.962;7.718;2023-07-24T15:13:25;2.60;;;2.03;;
3781;SDS011;6881;49.962;7.718;2023-07-24T15:15:50;1.67;;;1.43;;